createdAt,value
2023-03-26T00:02:27.365Z,99641.39
2023-03-26T00:06:10.301Z,99647.84
2023-03-26T00:09:57.996Z,99647.36
2023-03-26T00:13:47.197Z,99653.45
2023-03-26T00:17:27.269Z,99652.30
2023-03-26T00:21:07.747Z,99652.09
2023-03-26T00:24:50.494Z,99646.73
2023-03-26T00:28:32.211Z,99636.83
2023-03-26T00:32:21.167Z,99636.38
2023-03-26T00:36:10.405Z,99638.48
2023-03-26T00:39:43.272Z,99630.48
2023-03-26T00:43:32.128Z,99626.61
2023-03-26T00:47:12.462Z,99625.27
2023-03-26T00:50:35.432Z,99620.19
2023-03-26T00:54:24.361Z,99620.98
2023-03-26T00:57:56.622Z,99618.31
2023-03-26T01:01:20.939Z,99612.18
2023-03-26T01:05:22.207Z,99609.36
2023-03-26T01:08:55.037Z,99612.24
2023-03-26T01:12:12.301Z,99611.48
2023-03-26T01:15:37.017Z,99607.03
2023-03-26T01:19:10.428Z,99608.50
2023-03-26T01:22:34.655Z,99601.91
2023-03-26T01:26:18.645Z,99595.04
2023-03-26T01:30:10.937Z,99597.79
2023-03-26T01:34:02.728Z,99596.91
2023-03-26T01:37:39.090Z,99593.27
2023-03-26T01:41:13.733Z,99596.34
2023-03-26T01:45:03.932Z,99594.00
2023-03-26T01:48:19.831Z,99595.64
2023-03-26T01:52:00.035Z,99592.03
2023-03-26T01:55:09.800Z,99597.89
2023-03-26T01:58:41.698Z,99598.73
2023-03-26T02:02:29.562Z,99593.08
2023-03-26T02:06:10.234Z,99592.67
2023-03-26T02:09:52.594Z,99593.70
2023-03-26T02:13:24.402Z,99591.14
2023-03-26T02:16:50.360Z,99582.00
2023-03-26T02:20:07.358Z,99578.00
2023-03-26T02:23:39.303Z,99586.32
2023-03-26T02:26:53.524Z,99589.94
2023-03-26T02:30:25.180Z,99590.90
2023-03-26T02:33:57.291Z,99588.83
2023-03-26T02:37:15.919Z,99588.80
2023-03-26T02:40:56.999Z,99584.05
2023-03-26T02:44:24.112Z,99581.61
2023-03-26T02:48:01.820Z,99583.73
2023-03-26T02:51:35.024Z,99587.95
2023-03-26T02:55:03.465Z,99591.71
2023-03-26T02:58:42.187Z,99597.90
2023-03-26T03:02:24.758Z,99590.05
2023-03-26T03:06:13.810Z,99592.53
2023-03-26T03:09:57.348Z,99596.19
2023-03-26T03:13:29.482Z,99597.72
2023-03-26T03:17:18.389Z,99599.79
2023-03-26T03:20:57.239Z,99595.63
2023-03-26T03:24:26.478Z,99590.95
2023-03-26T03:28:15.301Z,99598.64
2023-03-26T03:31:35.035Z,99598.77
2023-03-26T03:35:12.865Z,99597.64
2023-03-26T03:38:54.411Z,99594.89
2023-03-26T03:42:43.220Z,99597.88
2023-03-26T03:46:24.746Z,99597.83
2023-03-26T03:49:43.116Z,99598.42
2023-03-26T03:53:21.910Z,99600.09
2023-03-26T03:56:47.639Z,99599.83
2023-03-26T04:00:27.574Z,99599.11
2023-03-26T04:04:19.356Z,99600.09
2023-03-26T04:08:08.280Z,99603.32
2023-03-26T04:11:46.135Z,99600.33
2023-03-26T04:15:37.652Z,99593.58
2023-03-26T04:19:08.422Z,99598.05
2023-03-26T04:22:49.678Z,99595.55
2023-03-26T04:26:38.479Z,99598.67
2023-03-26T04:30:33.201Z,99599.67
2023-03-26T04:34:15.545Z,99597.30
2023-03-26T04:37:47.879Z,99598.58
2023-03-26T04:41:37.370Z,99598.30
2023-03-26T04:44:58.718Z,99597.21
2023-03-26T04:48:28.638Z,99602.98
2023-03-26T04:52:18.739Z,99606.47
2023-03-26T04:56:28.875Z,99603.55
2023-03-26T05:00:08.631Z,99604.08
2023-03-26T05:03:57.628Z,99608.77
2023-03-26T05:07:28.827Z,99614.79
2023-03-26T05:10:59.962Z,99613.89
2023-03-26T05:14:19.528Z,99615.77
2023-03-26T05:18:08.414Z,99625.48
2023-03-26T05:21:15.818Z,99630.92
2023-03-26T05:24:54.785Z,99627.65
2023-03-26T05:28:26.568Z,99628.69
2023-03-26T05:32:14.805Z,99634.74
2023-03-26T05:35:39.402Z,99632.42
2023-03-26T05:39:28.287Z,99628.42
2023-03-26T05:43:08.016Z,99633.13
2023-03-26T05:46:43.671Z,99633.86
2023-03-26T05:49:54.139Z,99634.36
2023-03-26T05:53:22.054Z,99638.00
2023-03-26T05:56:47.000Z,99637.02
2023-03-26T06:00:35.031Z,99636.29
2023-03-26T06:04:08.546Z,99636.45
2023-03-26T06:07:18.901Z,99634.08
2023-03-26T06:10:59.588Z,99632.57
2023-03-26T06:14:41.746Z,99629.77
2023-03-26T06:18:33.727Z,99620.27
2023-03-26T06:22:21.665Z,99627.21
2023-03-26T06:26:19.710Z,99629.27
2023-03-26T06:29:51.763Z,99633.73
2023-03-26T06:33:56.373Z,99635.19
2023-03-26T06:37:13.648Z,99648.56
2023-03-26T06:40:47.945Z,99647.41
2023-03-26T06:44:28.616Z,99653.55
2023-03-26T06:48:17.550Z,99651.45
2023-03-26T06:51:45.013Z,99651.48
2023-03-26T06:55:13.103Z,99661.34
2023-03-26T06:58:52.913Z,99651.56
2023-03-26T07:02:42.020Z,99657.44
2023-03-26T07:06:03.432Z,99655.78
2023-03-26T07:09:33.348Z,99658.17
2023-03-26T07:13:00.758Z,99663.98
2023-03-26T07:17:06.039Z,99659.90
2023-03-26T07:20:55.335Z,99657.53
2023-03-26T07:24:35.153Z,99665.08
2023-03-26T07:28:40.253Z,99666.06
2023-03-26T07:32:22.086Z,99665.83
2023-03-26T07:36:24.618Z,99670.57
2023-03-26T07:40:45.870Z,99674.38
2023-03-26T07:45:02.907Z,99669.25
2023-03-26T07:48:58.659Z,99675.61
2023-03-26T07:53:00.586Z,99675.66
2023-03-26T07:56:54.108Z,99677.30
2023-03-26T08:00:35.450Z,99673.43
2023-03-26T08:04:36.290Z,99670.91
2023-03-26T08:08:21.362Z,99668.75
2023-03-26T08:12:33.119Z,99669.52
2023-03-26T08:16:22.726Z,99666.05
2023-03-26T08:20:12.930Z,99669.33
2023-03-26T08:24:02.075Z,99668.27
2023-03-26T08:27:31.567Z,99669.52
2023-03-26T08:31:12.710Z,99667.45
2023-03-26T08:34:51.202Z,99658.42
2023-03-26T08:38:30.323Z,99653.67
2023-03-26T08:42:47.312Z,99654.95
2023-03-26T08:46:28.016Z,99657.86
2023-03-26T08:50:45.208Z,99654.67
2023-03-26T08:54:26.931Z,99652.69
2023-03-26T08:58:15.166Z,99657.85
2023-03-26T09:02:20.684Z,99662.65
2023-03-26T09:06:26.402Z,99660.43
2023-03-26T09:10:15.512Z,99661.34
2023-03-26T09:14:08.406Z,99657.30
2023-03-26T09:17:25.319Z,99656.81
2023-03-26T09:21:29.391Z,99657.39
2023-03-26T09:25:15.952Z,99663.36
2023-03-26T09:28:53.029Z,99661.27
2023-03-26T09:32:39.474Z,99658.89
2023-03-26T09:36:35.822Z,99654.73
2023-03-26T09:40:34.538Z,99646.83
2023-03-26T09:44:29.551Z,99639.48
2023-03-26T09:48:01.570Z,99642.15
2023-03-26T09:52:06.402Z,99640.38
2023-03-26T09:55:48.672Z,99639.51
2023-03-26T09:59:58.968Z,99637.30
2023-03-26T10:03:42.084Z,99630.97
2023-03-26T10:07:39.726Z,99630.10
2023-03-26T10:11:33.593Z,99634.18
2023-03-26T10:15:38.109Z,99650.93
2023-03-26T10:19:42.748Z,99656.42
2023-03-26T10:23:43.529Z,99652.65
2023-03-26T10:27:38.934Z,99650.96
2023-03-26T10:31:35.601Z,99637.90
2023-03-26T10:35:20.152Z,99632.92
2023-03-26T10:39:35.933Z,99629.02
2023-03-26T10:43:24.812Z,99626.69
2023-03-26T10:46:59.854Z,99627.27
2023-03-26T10:51:04.331Z,99627.17
2023-03-26T10:55:00.243Z,99633.52
2023-03-26T10:58:49.083Z,99633.94
2023-03-26T11:02:30.515Z,99640.25
2023-03-26T11:06:24.963Z,99639.47
2023-03-26T11:10:35.190Z,99645.52
2023-03-26T11:14:35.597Z,99658.53
2023-03-26T11:18:30.562Z,99659.92
2023-03-26T11:22:39.414Z,99652.84
2023-03-26T11:26:38.914Z,99652.52
2023-03-26T11:30:23.324Z,99645.58
2023-03-26T11:34:06.425Z,99641.74
2023-03-26T11:37:40.264Z,99632.14
2023-03-26T11:41:23.476Z,99622.07
2023-03-26T11:45:23.290Z,99617.25
2023-03-26T11:49:11.897Z,99615.02
2023-03-26T11:53:02.036Z,99614.55
2023-03-26T11:57:07.435Z,99614.21
2023-03-26T12:00:50.127Z,99607.12
2023-03-26T12:04:43.674Z,99603.32
2023-03-26T12:08:11.624Z,99610.64
2023-03-26T12:12:01.347Z,99610.51
2023-03-26T12:15:15.152Z,99639.33
2023-03-26T12:18:58.635Z,99648.88
2023-03-26T12:22:47.779Z,99652.59
2023-03-26T12:26:40.893Z,99662.85
2023-03-26T12:30:33.454Z,99661.63
2023-03-26T12:34:23.651Z,99652.96
2023-03-26T12:38:14.964Z,99644.48
2023-03-26T12:44:47.835Z,99641.22
2023-03-26T12:47:26.480Z,99634.12
2023-03-26T12:49:10.499Z,99626.39
2023-03-26T12:52:56.164Z,99626.70
2023-03-26T12:57:11.975Z,99622.66
2023-03-26T13:01:20.622Z,99618.26
2023-03-26T13:05:31.417Z,99605.21
2023-03-26T13:09:45.294Z,99599.98
2023-03-26T13:13:48.251Z,99593.73
2023-03-26T13:17:47.602Z,99593.42
2023-03-26T13:21:45.633Z,99593.17
2023-03-26T13:25:40.443Z,99599.47
2023-03-26T13:29:23.324Z,99594.87
2023-03-26T13:33:10.742Z,99588.86
2023-03-26T13:37:21.889Z,99584.88
2023-03-26T13:41:22.462Z,99580.69
2023-03-26T13:45:21.740Z,99584.58
2023-03-26T13:49:13.460Z,99580.90
2023-03-26T13:52:55.161Z,99583.81
2023-03-26T13:56:51.267Z,99579.77
2023-03-26T14:00:43.370Z,99583.47
2023-03-26T14:04:31.299Z,99585.86
2023-03-26T14:08:09.190Z,99590.50
2023-03-26T14:12:22.313Z,99594.54
2023-03-26T14:16:28.453Z,99591.96
2023-03-26T14:20:16.562Z,99595.94
2023-03-26T14:24:05.927Z,99592.81
2023-03-26T14:27:36.917Z,99593.05
2023-03-26T14:31:20.837Z,99598.77
2023-03-26T14:35:26.629Z,99599.25
2023-03-26T14:39:15.370Z,99594.77
2023-03-26T14:43:10.685Z,99596.45
2023-03-26T14:47:16.614Z,99601.28
2023-03-26T14:51:12.464Z,99601.88
2023-03-26T14:54:59.710Z,99601.90
2023-03-26T14:58:51.649Z,99594.02
2023-03-26T15:02:48.182Z,99597.48
2023-03-26T15:06:29.135Z,99588.41
2023-03-26T15:10:29.927Z,99587.27
2023-03-26T15:14:22.272Z,99583.95
2023-03-26T15:18:19.315Z,99580.27
2023-03-26T15:22:10.264Z,99582.02
2023-03-26T15:26:04.131Z,99580.22
2023-03-26T15:29:47.205Z,99580.01
2023-03-26T15:33:44.132Z,99581.87
2023-03-26T15:37:16.447Z,99579.65
2023-03-26T15:40:43.312Z,99576.83
2023-03-26T15:44:23.396Z,99576.36
2023-03-26T15:48:14.915Z,99564.84
2023-03-26T15:52:03.010Z,99565.90
2023-03-26T15:56:05.235Z,99564.71
2023-03-26T16:00:02.436Z,99563.09
2023-03-26T16:03:52.824Z,99562.33
2023-03-26T16:07:43.209Z,99559.95
2023-03-26T16:11:30.882Z,99556.70
2023-03-26T16:14:57.406Z,99561.14
2023-03-26T16:18:36.480Z,99557.41
2023-03-26T16:22:16.937Z,99562.60
2023-03-26T16:26:33.900Z,99564.08
2023-03-26T16:30:15.392Z,99563.13
2023-03-26T16:34:18.857Z,99563.52
2023-03-26T16:37:59.038Z,99566.58
2023-03-26T16:41:56.973Z,99565.39
2023-03-26T16:45:48.506Z,99565.48
2023-03-26T16:49:28.580Z,99564.98
2023-03-26T16:53:16.176Z,99568.06
2023-03-26T16:57:07.708Z,99564.48
2023-03-26T17:00:53.867Z,99568.88
2023-03-26T17:04:45.906Z,99574.39
2023-03-26T17:08:35.155Z,99573.52
2023-03-26T17:12:23.540Z,99569.09
2023-03-26T17:16:22.689Z,99566.47
2023-03-26T17:19:51.198Z,99567.10
2023-03-26T17:23:26.347Z,99565.17
2023-03-26T17:27:31.250Z,99570.20
2023-03-26T17:31:53.809Z,99569.73
2023-03-26T17:35:18.077Z,99568.61
2023-03-26T17:38:53.254Z,99566.29
2023-03-26T17:42:21.249Z,99566.23
2023-03-26T17:45:46.175Z,99564.87
2023-03-26T17:49:03.456Z,99573.41
2023-03-26T17:52:48.102Z,99578.78
2023-03-26T17:56:24.241Z,99579.09
2023-03-26T17:59:38.731Z,99581.89
2023-03-26T18:03:06.336Z,99575.81
2023-03-26T18:06:51.007Z,99575.60
2023-03-26T18:10:44.793Z,99576.02
2023-03-26T18:14:02.424Z,99579.02
2023-03-26T18:17:20.844Z,99578.83
2023-03-26T18:20:37.966Z,99579.55
2023-03-26T18:23:37.780Z,99578.97
2023-03-26T18:27:19.757Z,99579.63
2023-03-26T18:30:44.257Z,99582.33
2023-03-26T18:34:20.383Z,99583.00
2023-03-26T18:38:05.357Z,99583.63
2023-03-26T18:42:00.032Z,99580.33
2023-03-26T18:45:06.417Z,99579.70
2023-03-26T18:48:50.288Z,99581.41
2023-03-26T18:52:43.104Z,99577.36
2023-03-26T18:56:14.210Z,99578.23
2023-03-26T18:59:57.866Z,99575.59
2023-03-26T19:03:17.655Z,99573.14
2023-03-26T19:06:57.891Z,99574.57
2023-03-26T19:10:29.852Z,99573.88
2023-03-26T19:14:31.030Z,99574.11
2023-03-26T19:18:34.915Z,99576.71
2023-03-26T19:21:47.292Z,99577.62
2023-03-26T19:25:17.630Z,99574.72
2023-03-26T19:29:12.105Z,99572.00
2023-03-26T19:32:37.015Z,99574.42
2023-03-26T19:36:21.289Z,99576.14
2023-03-26T19:40:14.302Z,99573.14
2023-03-26T19:43:46.700Z,99572.58
2023-03-26T19:47:46.111Z,99569.98
2023-03-26T19:51:10.788Z,99571.20
2023-03-26T19:55:01.344Z,99570.22
2023-03-26T19:58:41.056Z,99567.14
2023-03-26T20:02:33.327Z,99574.13
2023-03-26T20:06:33.892Z,99572.70
2023-03-26T20:10:01.072Z,99567.28
2023-03-26T20:13:56.461Z,99563.91
2023-03-26T20:17:28.620Z,99559.55
2023-03-26T20:20:53.338Z,99557.92
2023-03-26T20:24:29.619Z,99554.13
2023-03-26T20:28:19.825Z,99556.00
2023-03-26T20:32:08.615Z,99556.66
2023-03-26T20:35:36.181Z,99553.98
2023-03-26T20:39:08.649Z,99559.77
2023-03-26T20:42:43.391Z,99555.67
2023-03-26T20:46:11.719Z,99556.20
2023-03-26T20:49:20.826Z,99556.80
2023-03-26T20:52:46.368Z,99556.09
2023-03-26T20:56:17.747Z,99553.60
2023-03-26T20:59:23.942Z,99558.14
2023-03-26T21:02:27.591Z,99553.80
2023-03-26T21:05:40.758Z,99555.03
2023-03-26T21:09:30.280Z,99556.23
2023-03-26T21:13:22.375Z,99557.19
2023-03-26T21:16:30.430Z,99552.29
2023-03-26T21:20:08.017Z,99552.98
2023-03-26T21:23:50.220Z,99558.60
2023-03-26T21:27:33.078Z,99559.06
2023-03-26T21:31:02.712Z,99555.56
2023-03-26T21:34:23.110Z,99555.19
2023-03-26T21:37:30.148Z,99550.55
2023-03-26T21:44:18.429Z,99550.50
2023-03-26T21:47:14.877Z,99548.17
2023-03-26T21:50:22.294Z,99546.97
2023-03-26T21:53:54.934Z,99544.02
2023-03-26T21:57:40.566Z,99544.69
2023-03-26T22:01:41.535Z,99552.23
2023-03-26T22:05:07.721Z,99548.39
2023-03-26T22:08:59.560Z,99550.27
2023-03-26T22:12:17.975Z,99552.21
2023-03-26T22:15:58.790Z,99557.91
2023-03-26T22:19:18.177Z,99558.20
2023-03-26T22:22:58.202Z,99562.94
2023-03-26T22:26:16.172Z,99566.21
2023-03-26T22:29:55.492Z,99568.09
2023-03-26T22:33:15.653Z,99571.62
2023-03-26T22:36:46.900Z,99575.75
2023-03-26T22:40:18.394Z,99571.90
2023-03-26T22:44:19.228Z,99578.64
2023-03-26T22:48:09.149Z,99575.23
2023-03-26T22:51:18.695Z,99582.08
2023-03-26T22:54:43.336Z,99581.61
2023-03-26T22:57:44.509Z,99580.72
2023-03-26T23:01:31.069Z,99577.43
2023-03-26T23:04:59.671Z,99582.05
2023-03-26T23:08:28.651Z,99580.50
2023-03-26T23:11:57.708Z,99587.10
2023-03-26T23:15:47.002Z,99594.31
2023-03-26T23:19:13.976Z,99599.13
2023-03-26T23:22:49.504Z,99607.36
2023-03-26T23:26:37.740Z,99614.37
2023-03-26T23:30:06.705Z,99626.72
2023-03-26T23:33:29.411Z,99641.10
2023-03-26T23:36:47.699Z,99650.23
2023-03-26T23:40:11.897Z,99660.31
2023-03-26T23:43:55.472Z,99660.63
2023-03-26T23:47:26.810Z,99666.08
2023-03-26T23:51:03.773Z,99669.42
2023-03-26T23:54:56.648Z,99680.53
2023-03-26T23:58:27.180Z,99676.65
